Latest Weather Observations for Hindmarsh Island

IDS60901

Issued at 9:35 pm CST Tuesday 2 September 2014 (issued every 10 minutes, with the page automatically refreshed every 10 minutes)

About weather observations | Map of Adelaide area stations | Latest observations for Adelaide area | Other Formats
Station Details ID: 023894 Name: HINDMARSH ISLAND AWS Lat: -35.52 Lon: 138.82 Height: 11.0 m
Data from the previous 72 hours. | See also: Recent months at Hindmarsh Island
Date/Time
CST
Tmp

°C
App
Tmp
°C
Dew
Point
°C
Rel
Hum
%
Delta-T

°C
Wind Press
QNH
hPa
Press
MSL
hPa
Rain
since
9 am
mm
Dir
 
Spd
km/h
Gust
km/h
Spd
kts
Gust
kts
02/09:30pm 12.0 6.4 5.4 64 3.0 S 24 28 13 15 1026.9 - 0.0
02/09:00pm 11.8 7.9 6.9 72 2.3 S 17 22 9 12 1026.9 1026.9 0.0
02/08:30pm 11.6 7.1 6.9 73 2.2 SSE 20 26 11 14 1026.8 - 0.0
02/08:00pm 11.5 6.2 7.0 74 2.1 SSE 24 28 13 15 1026.8 - 0.0
02/07:30pm 11.3 6.5 7.2 76 2.0 SSE 22 26 12 14 1026.5 - 0.0
02/07:00pm 11.4 6.4 6.5 72 2.3 S 22 28 12 15 1026.2 - 0.0
02/06:30pm 11.4 6.2 7.3 76 2.0 S 24 30 13 16 1026.0 - 0.0
02/06:00pm 11.5 5.4 6.4 71 2.4 S 28 32 15 17 1025.7 1025.7 0.0
02/05:30pm 11.9 5.9 7.2 73 2.3 S 28 32 15 17 1025.6 - 0.0
02/05:00pm 12.2 6.0 7.9 75 2.1 S 30 33 16 18 1025.5 - 0.0
02/04:30pm 12.3 8.3 6.8 69 2.6 S 17 20 9 11 1025.4 - 0.0
02/04:00pm 12.8 8.2 6.6 66 3.0 S 20 24 11 13 1025.3 - 0.0
02/03:30pm 13.9 9.0 7.0 63 3.4 SSW 22 26 12 14 1025.0 - 0.0
02/03:00pm 14.5 10.6 7.1 61 3.6 SSW 17 20 9 11 1025.0 1025.0 0.0
02/02:30pm 14.0 8.5 5.9 58 3.8 S 24 30 13 16 1024.9 - 0.0
02/02:00pm 14.7 9.2 6.0 56 4.2 S 24 30 13 16 1024.9 - 0.0
02/01:30pm 14.0 8.5 6.1 59 3.8 S 24 28 13 15 1024.8 - 0.0
02/01:00pm 14.5 8.8 6.8 60 3.7 S 26 33 14 18 1024.7 - 0.0
02/12:30pm 14.8 8.9 7.4 61 3.7 S 28 35 15 19 1024.9 - 0.0
02/12:00pm 14.4 8.6 8.1 66 3.1 SSE 28 37 15 20 1024.9 - 0.0
02/11:30am 14.0 7.6 7.1 63 3.4 S 30 37 16 20 1025.0 - 0.0
02/11:00am 14.3 8.0 7.6 64 3.3 S 30 37 16 20 1025.1 - 0.0
02/10:30am 13.8 6.9 7.1 64 3.3 S 33 39 18 21 1024.8 - 0.0
02/10:00am 13.3 5.2 7.1 66 3.0 S 39 46 21 25 1024.7 - 0.0
02/09:30am 13.4 6.0 6.7 64 3.2 S 35 39 19 21 1024.6 - 0.0
02/09:00am 13.0 6.1 6.4 64 3.1 S 32 39 17 21 1024.5 1024.4 3.6
02/08:30am 12.4 6.5 7.3 71 2.5 SSW 28 32 15 17 1024.5 - 3.6
02/08:00am 12.1 5.2 6.6 69 2.6 S 32 39 17 21 1024.1 - 3.6
02/07:30am 11.7 4.4 5.6 66 2.8 SSW 33 37 18 20 1023.4 - 3.6
02/07:00am 11.6 4.1 6.5 71 2.4 S 35 46 19 25 1022.8 - 3.6
02/06:30am 11.3 3.2 5.2 66 2.8 S 37 44 20 24 1022.3 - 3.6
02/06:00am 11.5 3.8 5.2 65 2.9 S 35 43 19 23 1021.7 1021.6 3.6
02/05:30am 11.3 3.6 5.4 67 2.7 S 35 43 19 23 1021.3 - 3.6
02/05:00am 11.1 4.0 6.5 73 2.2 S 33 41 18 22 1020.9 - 3.6
02/04:30am 11.0 2.1 5.3 68 2.6 SSW 41 48 22 26 1020.5 - 3.6
02/04:00am 10.9 2.3 4.6 65 2.8 SSW 39 46 21 25 1020.0 - 3.6
02/03:41am 9.9 2.5 4.9 71 2.2 SSW 33 52 18 28 1019.9 - 3.6
02/03:30am 10.6 2.2 5.6 71 2.3 SSW 39 48 21 26 1019.8 - 3.4
02/03:00am 10.6 2.2 5.4 70 2.4 S 39 50 21 27 1019.4 - 3.4
02/02:30am 11.1 2.0 6.0 71 2.4 SSW 43 54 23 29 1019.4 - 3.4
02/02:24am 11.1 2.4 5.8 70 2.5 SSW 41 52 22 28 1019.3 - 3.4
02/02:00am 10.5 1.6 5.1 69 2.5 SW 41 54 22 29 1019.3 - 3.4
02/01:30am 11.0 2.5 5.1 67 2.7 SSW 39 46 21 25 1019.1 - 3.4
02/01:00am 11.1 1.8 4.8 65 2.9 SSW 43 52 23 28 1018.7 - 3.4
02/12:42am 10.5 1.1 5.5 71 2.3 SSW 44 56 24 30 1018.7 - 3.4
02/12:30am 11.0 3.4 5.7 70 2.4 WSW 35 57 19 31 1018.7 - 3.4
02/12:24am 11.2 3.7 4.7 64 2.9 WSW 33 52 18 28 1018.8 - 3.4
02/12:00am 11.1 2.5 4.6 64 2.9 SW 39 52 21 28 1018.7 1018.6 3.4
 
Date/Time
CST
Tmp

°C
App
Tmp
°C
Dew
Point
°C
Rel
Hum
%
Delta-T

°C
Wind Press
QNH
hPa
Press
MSL
hPa
Rain
since
9 am
mm
Dir
 
Spd
km/h
Gust
km/h
Spd
kts
Gust
kts
01/11:30pm 11.0 1.5 4.7 65 2.8 SW 44 56 24 30 1018.3 - 3.4
01/11:06pm 10.8 2.9 6.0 72 2.2 SW 37 44 20 24 1018.1 - 3.4
01/11:00pm 10.2 4.9 6.7 79 1.6 W 24 37 13 20 1018.4 - 3.4
01/10:50pm 10.4 3.9 6.4 76 1.9 WSW 30 41 16 22 1018.3 - 3.4
01/10:32pm 10.3 2.6 7.2 81 1.5 SSW 37 56 20 30 1017.9 - 2.8
01/10:30pm 10.1 2.5 5.9 75 1.9 SSW 35 48 19 26 1018.0 - 2.8
01/10:24pm 10.8 3.1 7.3 79 1.7 SSW 37 48 20 26 1017.9 - 2.6
01/10:00pm 10.2 4.3 5.8 74 2.0 W 26 35 14 19 1017.9 - 2.6
01/09:33pm 10.5 4.3 6.3 75 2.0 WSW 28 46 15 25 1017.7 - 2.6
01/09:30pm 10.4 4.5 6.0 74 2.0 WSW 26 41 14 22 1017.8 - 2.6
01/09:00pm 10.6 2.4 6.6 76 1.9 SW 39 48 21 26 1017.3 1017.3 2.6
01/08:56pm 10.6 2.3 6.2 74 2.0 SW 39 48 21 26 1017.3 - 2.6
01/08:42pm 10.3 3.8 6.5 77 1.8 WSW 30 50 16 27 1017.2 - 2.6
01/08:30pm 10.2 3.7 8.0 86 1.1 W 32 43 17 23 1017.1 - 2.6
01/08:00pm 9.8 4.9 6.7 81 1.5 W 22 33 12 18 1016.8 - 2.2
01/07:30pm 10.0 4.7 6.9 81 1.5 WSW 24 33 13 18 1016.5 - 1.8
01/07:23pm 10.1 3.1 7.0 81 1.5 WSW 33 52 18 28 1016.5 - 1.8
01/07:08pm 10.8 3.6 7.7 81 1.5 WSW 35 50 19 27 1016.3 - 1.6
01/07:00pm 10.8 6.4 7.3 79 1.7 W 20 30 11 16 1016.2 - 1.6
01/06:30pm 11.1 6.2 7.0 76 2.0 W 22 30 12 16 1015.4 - 1.6
01/06:00pm 10.3 6.3 6.5 77 1.8 NW 17 22 9 12 1015.3 1015.3 1.6
01/05:30pm 11.0 8.1 8.0 82 1.5 W 13 17 7 9 1015.0 - 0.6
01/05:00pm 12.0 7.8 7.3 73 2.3 WSW 19 24 10 13 1014.7 - 0.0
01/04:30pm 12.7 9.4 6.3 65 3.0 W 13 20 7 11 1014.2 - 0.0
01/04:00pm 12.4 8.5 6.9 69 2.6 WNW 17 22 9 12 1014.2 - 0.0
01/03:30pm 12.9 6.0 6.5 65 3.1 WSW 32 39 17 21 1014.0 - 0.0
01/03:00pm 13.7 6.1 5.6 58 3.8 SW 35 43 19 23 1013.3 1013.3 0.0
01/02:30pm 15.3 8.1 6.1 54 4.4 SW 33 41 18 22 1013.3 - 0.0
01/02:00pm 15.2 8.6 6.2 55 4.3 SW 30 39 16 21 1013.2 - 0.0
01/01:30pm 14.8 7.2 7.4 61 3.7 SW 37 46 20 25 1013.2 - 0.0
01/01:00pm 15.1 8.4 8.3 64 3.4 SW 33 41 18 22 1013.4 - 0.0
01/12:30pm 14.4 7.8 7.7 64 3.3 SW 32 39 17 21 1013.5 - 0.0
01/12:00pm 15.3 8.8 8.3 63 3.5 SW 32 39 17 21 1013.5 1013.5 0.0
01/11:30am 14.7 8.3 8.6 67 3.1 SW 32 39 17 21 1013.5 - 0.0
01/11:00am 14.7 8.5 7.7 63 3.5 WSW 30 39 16 21 1013.4 - 0.0
01/10:30am 14.5 8.2 7.3 62 3.5 WSW 30 39 16 21 1013.2 - 0.0
01/10:00am 14.4 9.1 9.8 74 2.4 WSW 28 35 15 19 1013.2 - 0.0
01/09:30am 13.7 7.8 9.2 74 2.3 WSW 30 35 16 19 1013.0 - 0.0
01/09:00am 13.5 9.2 9.4 76 2.1 W 22 28 12 15 1012.8 1012.8 4.2
01/08:30am 12.4 8.2 8.1 75 2.1 W 20 32 11 17 1012.7 - 4.2
01/08:00am 11.9 8.0 8.6 80 1.6 W 19 26 10 14 1012.2 - 4.2
01/07:30am 12.5 7.5 8.2 75 2.1 WSW 24 33 13 18 1012.1 - 3.8
01/07:00am 12.6 9.0 9.8 83 1.4 W 19 24 10 13 1011.9 - 3.8
01/06:30am 12.6 8.0 9.8 83 1.4 W 24 30 13 16 1011.4 - 3.8
01/06:00am 12.5 8.7 9.7 83 1.4 W 20 24 11 13 1011.0 1010.9 3.8
01/05:30am 12.6 8.4 9.6 82 1.5 W 22 28 12 15 1010.8 - 3.8
01/05:00am 12.5 8.9 9.7 83 1.4 W 19 26 10 14 1010.5 - 3.8
01/04:30am 12.6 9.0 9.8 83 1.4 W 19 26 10 14 1010.3 - 3.8
01/04:00am 12.5 8.7 9.9 84 1.3 W 20 28 11 15 1010.2 - 3.8
01/03:30am 12.4 9.2 10.1 86 1.2 W 17 26 9 14 1010.1 - 3.8
01/03:00am 12.5 8.8 10.2 86 1.2 W 20 28 11 15 1010.3 1010.4 3.8
01/02:30am 12.3 9.2 10.2 87 1.1 WNW 17 24 9 13 1010.5 - 3.4
01/02:00am 12.1 8.5 10.0 87 1.1 W 19 26 10 14 1011.0 - 3.2
01/01:30am 11.9 9.0 9.5 85 1.2 W 15 20 8 11 1010.9 - 2.6
01/01:00am 12.0 8.2 9.2 83 1.4 WNW 19 22 10 12 1011.9 - 1.4
01/12:30am 12.7 7.6 9.3 80 1.7 W 26 33 14 18 1011.5 - 0.2
01/12:00am 13.6 10.5 11.5 87 1.1 SW 19 22 10 12 1010.7 1010.7 0.0
 
Date/Time
CST
Tmp

°C
App
Tmp
°C
Dew
Point
°C
Rel
Hum
%
Delta-T

°C
Wind Press
QNH
hPa
Press
MSL
hPa
Rain
since
9 am
mm
Dir
 
Spd
km/h
Gust
km/h
Spd
kts
Gust
kts
31/11:30pm 13.7 11.3 11.4 86 1.2 WSW 15 17 8 9 1011.1 - 0.0
31/11:00pm 13.9 10.7 11.4 85 1.3 WSW 19 26 10 14 1011.0 - 0.0
31/10:30pm 14.9 11.2 10.1 73 2.5 WSW 20 28 11 15 1010.3 - 0.0
31/10:00pm 14.9 11.8 8.8 67 3.1 W 15 20 8 11 1010.8 - 0.0
31/09:30pm 15.0 10.4 8.0 63 3.5 WNW 22 32 12 17 1010.3 - 0.0
31/09:00pm 15.2 12.0 7.0 58 4.0 WNW 13 24 7 13 1010.1 1010.1 0.0
31/08:30pm 15.2 12.3 8.0 62 3.6 W 13 19 7 10 1010.1 - 0.0
31/08:00pm 16.2 13.2 6.1 51 4.9 W 11 15 6 8 1010.3 - 0.0
31/07:30pm 16.8 13.5 6.6 51 5.0 NNW 13 17 7 9 1010.4 - 0.0
31/07:00pm 17.0 14.8 6.2 49 5.3 NW 7 13 4 7 1009.9 - 0.0
31/06:30pm 17.9 15.2 5.8 45 5.9 NW 9 13 5 7 1009.5 - 0.0
31/06:00pm 19.0 14.1 5.1 40 6.8 W 20 28 11 15 1010.0 1010.0 0.0
31/05:30pm 20.9 16.6 3.2 31 8.4 N 15 20 8 11 1009.3 - 0.0
31/05:00pm 21.8 16.4 2.5 28 9.1 N 20 32 11 17 1009.2 - 0.0
31/04:30pm 22.9 17.6 2.9 27 9.6 N 20 28 11 15 1009.5 - 0.0
31/04:00pm 22.1 15.7 3.3 29 9.0 N 26 41 14 22 1009.2 - 0.0
31/03:30pm 22.6 15.8 3.2 28 9.3 N 28 43 15 23 1008.7 - 0.0
31/03:00pm 22.9 16.1 2.9 27 9.6 NNW 28 41 15 22 1009.2 1009.3 0.0
31/02:30pm 22.7 14.2 1.1 24 10.0 NNW 35 50 19 27 1009.8 - 0.0
31/02:00pm 22.2 13.7 0.7 24 9.8 NNW 35 54 19 29 1010.4 - 0.0
31/01:51pm 21.8 13.3 0.9 25 9.5 NW 35 54 19 29 1010.5 - 0.0
31/01:30pm 21.8 12.5 0.9 25 9.5 NW 39 52 21 28 1010.6 - 0.0
31/01:00pm 22.0 11.0 0.5 24 9.8 NW 48 63 26 34 1010.6 - 0.0
31/12:34pm 22.2 11.2 0.7 24 9.8 NW 48 67 26 36 1010.8 - 0.0
31/12:30pm 22.2 10.4 0.1 23 10.0 NW 52 67 28 36 1010.8 - 0.0
31/12:00pm 21.8 13.8 0.4 24 9.7 NNW 32 56 17 30 1011.9 1011.9 0.0
31/11:55am 21.7 14.0 -0.3 23 9.8 NNW 30 48 16 26 1012.1 - 0.0
31/11:30am 20.7 14.7 1.1 27 8.9 N 22 32 12 17 1012.6 - 0.0
31/11:00am 19.1 14.0 0.7 29 8.2 N 17 22 9 12 1013.4 - 0.0
31/10:30am 19.0 13.5 0.6 29 8.2 N 19 28 10 15 1013.9 - 0.0
31/10:00am 18.6 12.5 0.7 30 7.9 N 22 30 12 16 1014.0 - 0.0
31/09:30am 19.5 12.4 -1.0 25 8.8 N 26 39 14 21 1013.7 - 0.0
31/09:00am 16.5 11.8 3.2 41 6.1 NNE 17 22 9 12 1014.4 1014.4 0.0
31/08:30am 17.8 12.3 0.9 32 7.5 N 19 24 10 13 1014.6 - 0.0
31/08:00am 14.7 11.1 5.2 53 4.5 N 13 17 7 9 1014.8 - 0.0
31/07:30am 13.7 8.5 3.8 51 4.5 N 20 26 11 14 1014.7 - 0.0
31/07:00am 12.1 7.7 4.6 60 3.4 N 17 20 9 11 1014.8 - 0.0
31/06:30am 11.7 8.1 4.9 63 3.1 N 13 17 7 9 1015.0 - 0.0
31/06:00am 12.8 8.8 5.0 59 3.6 N 15 19 8 10 1014.7 1014.7 0.0
31/05:30am 12.2 9.0 5.1 62 3.3 N 11 15 6 8 1014.8 - 0.0
31/05:00am 12.1 8.1 5.0 62 3.3 N 15 17 8 9 1014.6 - 0.0
31/04:30am 11.8 8.2 4.8 62 3.2 N 13 17 7 9 1014.5 - 0.0
31/04:00am 9.5 5.8 4.7 72 2.1 E 13 15 7 8 1014.5 - 0.0
31/03:30am 12.1 7.9 5.9 66 2.9 N 17 20 9 11 1014.5 - 0.0
31/03:00am 11.0 6.9 6.4 73 2.2 N 17 19 9 10 1014.9 1014.9 0.0
31/02:30am 10.8 7.0 6.0 72 2.2 N 15 17 8 9 1015.3 - 0.0
31/02:00am 11.1 7.3 5.6 69 2.5 N 15 20 8 11 1015.7 - 0.0
31/01:30am 11.1 6.9 5.8 70 2.5 NNE 17 20 9 11 1015.8 - 0.0
31/01:00am 11.5 7.7 6.0 69 2.6 N 15 19 8 10 1016.0 - 0.0
31/12:30am 12.5 7.8 5.9 64 3.1 NNE 20 24 11 13 1016.1 - 0.0
31/12:00am 12.5 7.7 5.4 62 3.3 N 20 24 11 13 1016.4 1016.4 0.0
 
Date/Time
CST
Tmp

°C
App
Tmp
°C
Dew
Point
°C
Rel
Hum
%
Delta-T

°C
Wind Press
QNH
hPa
Press
MSL
hPa
Rain
since
9 am
mm
Dir
 
Spd
km/h
Gust
km/h
Spd
kts
Gust
kts
30/11:30pm 13.5 8.0 6.1 61 3.5 NNE 24 32 13 17 1016.7 - 0.0
30/11:00pm 12.8 7.4 6.2 64 3.1 NNE 24 28 13 15 1016.9 - 0.0
30/10:30pm 12.1 7.5 5.5 64 3.1 NNE 19 22 10 12 1017.4 - 0.0
30/10:00pm 12.6 8.8 5.8 63 3.2 NNE 15 19 8 10 1017.8 - 0.0

Latest Capital City Observations: Canberra | Sydney | Melbourne | Brisbane | Adelaide | Perth | Hobart | Darwin

Other Formats:

Comma delimited format used in spreadsheet applications
http://www.bom.gov.au/fwo/IDS60901/IDS60901.94677.axf

JavaScript Object Notation format (JSON) in row-major order
http://www.bom.gov.au/fwo/IDS60901/IDS60901.94677.json